sensor_id;sensor_type;location;lat;lon;timestamp;P1;durP1;ratioP1;P2;durP2;ratioP2
66212;SDS011;53015;50.046;8.238;2023-04-27T00:01:50;6.05;;;1.90;;
66212;SDS011;53015;50.046;8.238;2023-04-27T00:04:15;5.47;;;1.83;;
66212;SDS011;53015;50.046;8.238;2023-04-27T00:06:41;5.30;;;1.77;;
66212;SDS011;53015;50.046;8.238;2023-04-27T00:09:06;5.53;;;2.03;;
66212;SDS011;53015;50.046;8.238;2023-04-27T00:11:32;7.72;;;1.75;;
66212;SDS011;53015;50.046;8.238;2023-04-27T00:13:58;6.65;;;2.03;;
66212;SDS011;53015;50.046;8.238;2023-04-27T00:16:23;3.65;;;2.22;;
66212;SDS011;53015;50.046;8.238;2023-04-27T00:18:51;4.45;;;2.20;;
66212;SDS011;53015;50.046;8.238;2023-04-27T00:21:16;7.97;;;2.67;;
66212;SDS011;53015;50.046;8.238;2023-04-27T00:23:42;5.53;;;2.35;;
66212;SDS011;53015;50.046;8.238;2023-04-27T00:26:07;11.32;;;3.10;;
66212;SDS011;53015;50.046;8.238;2023-04-27T00:28:33;6.43;;;2.45;;
66212;SDS011;53015;50.046;8.238;2023-04-27T00:30:59;9.65;;;3.10;;
66212;SDS011;53015;50.046;8.238;2023-04-27T00:33:25;6.10;;;2.60;;
66212;SDS011;53015;50.046;8.238;2023-04-27T00:35:52;7.15;;;2.60;;
66212;SDS011;53015;50.046;8.238;2023-04-27T00:38:17;5.65;;;2.08;;
66212;SDS011;53015;50.046;8.238;2023-04-27T00:40:43;4.25;;;2.53;;
66212;SDS011;53015;50.046;8.238;2023-04-27T00:43:09;4.00;;;2.20;;
66212;SDS011;53015;50.046;8.238;2023-04-27T00:45:35;4.78;;;2.35;;
66212;SDS011;53015;50.046;8.238;2023-04-27T00:48:05;4.03;;;2.00;;
66212;SDS011;53015;50.046;8.238;2023-04-27T00:50:30;6.13;;;2.22;;
66212;SDS011;53015;50.046;8.238;2023-04-27T00:52:57;5.13;;;1.90;;
66212;SDS011;53015;50.046;8.238;2023-04-27T00:55:23;6.60;;;2.05;;
66212;SDS011;53015;50.046;8.238;2023-04-27T00:57:49;3.15;;;1.80;;
66212;SDS011;53015;50.046;8.238;2023-04-27T01:00:14;4.55;;;2.25;;
66212;SDS011;53015;50.046;8.238;2023-04-27T01:02:40;7.10;;;2.83;;
66212;SDS011;53015;50.046;8.238;2023-04-27T01:05:06;5.03;;;1.95;;
66212;SDS011;53015;50.046;8.238;2023-04-27T01:07:33;6.20;;;2.35;;
66212;SDS011;53015;50.046;8.238;2023-04-27T01:10:03;5.72;;;1.95;;
66212;SDS011;53015;50.046;8.238;2023-04-27T01:12:29;4.72;;;2.45;;
66212;SDS011;53015;50.046;8.238;2023-04-27T01:14:54;5.03;;;2.25;;
66212;SDS011;53015;50.046;8.238;2023-04-27T01:17:20;6.50;;;2.70;;
66212;SDS011;53015;50.046;8.238;2023-04-27T01:19:45;6.30;;;2.25;;
66212;SDS011;53015;50.046;8.238;2023-04-27T01:22:11;6.35;;;2.30;;
66212;SDS011;53015;50.046;8.238;2023-04-27T01:24:38;3.67;;;2.28;;
66212;SDS011;53015;50.046;8.238;2023-04-27T01:27:03;3.30;;;1.85;;
66212;SDS011;53015;50.046;8.238;2023-04-27T01:29:29;3.08;;;2.25;;
66212;SDS011;53015;50.046;8.238;2023-04-27T01:31:54;5.18;;;2.08;;
66212;SDS011;53015;50.046;8.238;2023-04-27T01:34:20;4.57;;;2.20;;
66212;SDS011;53015;50.046;8.238;2023-04-27T01:36:45;6.10;;;2.15;;
66212;SDS011;53015;50.046;8.238;2023-04-27T01:39:11;7.45;;;2.20;;
66212;SDS011;53015;50.046;8.238;2023-04-27T01:41:37;8.27;;;2.00;;
66212;SDS011;53015;50.046;8.238;2023-04-27T01:44:03;4.22;;;2.30;;
66212;SDS011;53015;50.046;8.238;2023-04-27T01:46:29;5.22;;;2.20;;
66212;SDS011;53015;50.046;8.238;2023-04-27T01:48:54;3.95;;;2.20;;
66212;SDS011;53015;50.046;8.238;2023-04-27T01:51:20;3.30;;;1.95;;
66212;SDS011;53015;50.046;8.238;2023-04-27T01:53:45;5.43;;;2.30;;
66212;SDS011;53015;50.046;8.238;2023-04-27T01:56:11;9.13;;;2.63;;
66212;SDS011;53015;50.046;8.238;2023-04-27T01:58:38;8.90;;;2.80;;
66212;SDS011;53015;50.046;8.238;2023-04-27T02:01:03;5.40;;;2.83;;
66212;SDS011;53015;50.046;8.238;2023-04-27T02:03:29;5.28;;;2.72;;
66212;SDS011;53015;50.046;8.238;2023-04-27T02:05:54;7.05;;;2.70;;
66212;SDS011;53015;50.046;8.238;2023-04-27T02:08:20;6.65;;;2.55;;
66212;SDS011;53015;50.046;8.238;2023-04-27T02:10:45;5.82;;;2.60;;
66212;SDS011;53015;50.046;8.238;2023-04-27T02:13:11;8.07;;;2.55;;
66212;SDS011;53015;50.046;8.238;2023-04-27T02:15:38;7.55;;;2.65;;
66212;SDS011;53015;50.046;8.238;2023-04-27T02:18:04;7.45;;;2.63;;
66212;SDS011;53015;50.046;8.238;2023-04-27T02:20:29;7.88;;;2.92;;
66212;SDS011;53015;50.046;8.238;2023-04-27T02:22:55;5.57;;;2.22;;
66212;SDS011;53015;50.046;8.238;2023-04-27T02:25:20;4.78;;;2.50;;
66212;SDS011;53015;50.046;8.238;2023-04-27T02:27:46;3.63;;;2.50;;
66212;SDS011;53015;50.046;8.238;2023-04-27T02:30:12;6.10;;;2.55;;
66212;SDS011;53015;50.046;8.238;2023-04-27T02:32:40;5.20;;;2.30;;
66212;SDS011;53015;50.046;8.238;2023-04-27T02:35:06;6.60;;;2.25;;
66212;SDS011;53015;50.046;8.238;2023-04-27T02:37:32;3.17;;;2.40;;
66212;SDS011;53015;50.046;8.238;2023-04-27T02:39:57;6.22;;;2.60;;
66212;SDS011;53015;50.046;8.238;2023-04-27T02:42:23;4.35;;;2.40;;
66212;SDS011;53015;50.046;8.238;2023-04-27T02:44:49;5.88;;;2.65;;
66212;SDS011;53015;50.046;8.238;2023-04-27T02:47:14;3.47;;;2.13;;
66212;SDS011;53015;50.046;8.238;2023-04-27T02:49:41;3.53;;;2.30;;
66212;SDS011;53015;50.046;8.238;2023-04-27T02:52:06;4.53;;;2.17;;
66212;SDS011;53015;50.046;8.238;2023-04-27T02:54:32;4.55;;;2.42;;
66212;SDS011;53015;50.046;8.238;2023-04-27T02:56:57;6.35;;;2.00;;
66212;SDS011;53015;50.046;8.238;2023-04-27T02:59:23;5.00;;;2.53;;
66212;SDS011;53015;50.046;8.238;2023-04-27T03:01:48;5.10;;;2.03;;
66212;SDS011;53015;50.046;8.238;2023-04-27T03:04:14;6.15;;;2.53;;
66212;SDS011;53015;50.046;8.238;2023-04-27T03:06:41;5.72;;;2.55;;
66212;SDS011;53015;50.046;8.238;2023-04-27T03:09:06;5.05;;;2.30;;
66212;SDS011;53015;50.046;8.238;2023-04-27T03:11:32;5.40;;;2.67;;
66212;SDS011;53015;50.046;8.238;2023-04-27T03:13:57;4.13;;;2.67;;
66212;SDS011;53015;50.046;8.238;2023-04-27T03:16:23;6.40;;;2.58;;
66212;SDS011;53015;50.046;8.238;2023-04-27T03:18:48;4.90;;;2.08;;
66212;SDS011;53015;50.046;8.238;2023-04-27T03:21:14;4.95;;;2.20;;
66212;SDS011;53015;50.046;8.238;2023-04-27T03:23:41;6.25;;;2.38;;
66212;SDS011;53015;50.046;8.238;2023-04-27T03:26:07;6.47;;;2.03;;
66212;SDS011;53015;50.046;8.238;2023-04-27T03:28:34;4.38;;;2.20;;
66212;SDS011;53015;50.046;8.238;2023-04-27T03:31:03;3.40;;;2.50;;
66212;SDS011;53015;50.046;8.238;2023-04-27T03:33:29;5.50;;;2.45;;
66212;SDS011;53015;50.046;8.238;2023-04-27T03:35:54;5.07;;;2.40;;
66212;SDS011;53015;50.046;8.238;2023-04-27T03:38:20;4.75;;;1.98;;
66212;SDS011;53015;50.046;8.238;2023-04-27T03:40:47;7.43;;;2.38;;
66212;SDS011;53015;50.046;8.238;2023-04-27T03:43:13;3.88;;;2.13;;
66212;SDS011;53015;50.046;8.238;2023-04-27T03:45:38;6.43;;;2.67;;
66212;SDS011;53015;50.046;8.238;2023-04-27T03:48:04;4.43;;;2.17;;
66212;SDS011;53015;50.046;8.238;2023-04-27T03:50:30;5.75;;;2.50;;
66212;SDS011;53015;50.046;8.238;2023-04-27T03:52:55;5.15;;;2.40;;
66212;SDS011;53015;50.046;8.238;2023-04-27T03:55:21;4.15;;;2.63;;
66212;SDS011;53015;50.046;8.238;2023-04-27T03:57:48;5.55;;;2.55;;
66212;SDS011;53015;50.046;8.238;2023-04-27T04:00:14;4.30;;;2.30;;
66212;SDS011;53015;50.046;8.238;2023-04-27T04:02:39;5.88;;;2.25;;
66212;SDS011;53015;50.046;8.238;2023-04-27T04:05:05;4.55;;;2.30;;
66212;SDS011;53015;50.046;8.238;2023-04-27T04:07:31;6.28;;;2.33;;
66212;SDS011;53015;50.046;8.238;2023-04-27T04:09:56;4.55;;;2.30;;
66212;SDS011;53015;50.046;8.238;2023-04-27T04:12:22;6.45;;;2.80;;
66212;SDS011;53015;50.046;8.238;2023-04-27T04:14:48;4.65;;;2.47;;
66212;SDS011;53015;50.046;8.238;2023-04-27T04:17:14;5.05;;;2.20;;
66212;SDS011;53015;50.046;8.238;2023-04-27T04:19:39;4.13;;;2.80;;
66212;SDS011;53015;50.046;8.238;2023-04-27T04:22:05;7.93;;;2.40;;
66212;SDS011;53015;50.046;8.238;2023-04-27T04:24:30;5.68;;;2.30;;
66212;SDS011;53015;50.046;8.238;2023-04-27T04:26:56;4.63;;;2.47;;
66212;SDS011;53015;50.046;8.238;2023-04-27T04:29:21;3.63;;;1.92;;
66212;SDS011;53015;50.046;8.238;2023-04-27T04:31:48;5.50;;;2.47;;
66212;SDS011;53015;50.046;8.238;2023-04-27T04:34:13;7.38;;;2.65;;
66212;SDS011;53015;50.046;8.238;2023-04-27T04:36:39;7.05;;;2.70;;
66212;SDS011;53015;50.046;8.238;2023-04-27T04:39:04;5.55;;;3.15;;
66212;SDS011;53015;50.046;8.238;2023-04-27T04:41:30;6.70;;;2.67;;
66212;SDS011;53015;50.046;8.238;2023-04-27T04:43:55;5.68;;;2.63;;
66212;SDS011;53015;50.046;8.238;2023-04-27T04:46:21;6.13;;;2.63;;
66212;SDS011;53015;50.046;8.238;2023-04-27T04:48:48;10.00;;;2.78;;
66212;SDS011;53015;50.046;8.238;2023-04-27T04:51:13;4.68;;;2.67;;
66212;SDS011;53015;50.046;8.238;2023-04-27T04:53:39;7.68;;;2.80;;
66212;SDS011;53015;50.046;8.238;2023-04-27T04:56:07;7.03;;;2.97;;
66212;SDS011;53015;50.046;8.238;2023-04-27T04:58:33;7.47;;;2.72;;
66212;SDS011;53015;50.046;8.238;2023-04-27T05:00:59;9.27;;;2.78;;
66212;SDS011;53015;50.046;8.238;2023-04-27T05:03:24;4.85;;;2.80;;
66212;SDS011;53015;50.046;8.238;2023-04-27T05:05:51;5.40;;;2.50;;
66212;SDS011;53015;50.046;8.238;2023-04-27T05:08:16;8.40;;;2.83;;
66212;SDS011;53015;50.046;8.238;2023-04-27T05:10:47;7.00;;;2.67;;
66212;SDS011;53015;50.046;8.238;2023-04-27T05:13:13;8.77;;;2.90;;
66212;SDS011;53015;50.046;8.238;2023-04-27T05:15:38;6.05;;;2.67;;
66212;SDS011;53015;50.046;8.238;2023-04-27T05:18:04;8.90;;;3.17;;
66212;SDS011;53015;50.046;8.238;2023-04-27T05:20:29;8.45;;;3.40;;
66212;SDS011;53015;50.046;8.238;2023-04-27T05:22:59;8.85;;;3.40;;
66212;SDS011;53015;50.046;8.238;2023-04-27T05:25:25;7.80;;;3.28;;
66212;SDS011;53015;50.046;8.238;2023-04-27T05:27:50;7.57;;;3.38;;
66212;SDS011;53015;50.046;8.238;2023-04-27T05:30:15;7.65;;;3.60;;
66212;SDS011;53015;50.046;8.238;2023-04-27T05:32:41;13.73;;;3.75;;
66212;SDS011;53015;50.046;8.238;2023-04-27T05:35:07;8.63;;;3.47;;
66212;SDS011;53015;50.046;8.238;2023-04-27T05:37:32;6.82;;;3.40;;
66212;SDS011;53015;50.046;8.238;2023-04-27T05:39:59;10.48;;;4.20;;
66212;SDS011;53015;50.046;8.238;2023-04-27T05:42:25;8.57;;;3.40;;
66212;SDS011;53015;50.046;8.238;2023-04-27T05:44:50;9.88;;;3.53;;
66212;SDS011;53015;50.046;8.238;2023-04-27T05:47:16;13.23;;;3.53;;
66212;SDS011;53015;50.046;8.238;2023-04-27T05:49:41;9.02;;;3.67;;
66212;SDS011;53015;50.046;8.238;2023-04-27T05:52:07;11.13;;;3.90;;
66212;SDS011;53015;50.046;8.238;2023-04-27T05:54:32;8.73;;;3.72;;
66212;SDS011;53015;50.046;8.238;2023-04-27T05:56:59;7.85;;;3.50;;
66212;SDS011;53015;50.046;8.238;2023-04-27T05:59:24;8.38;;;3.90;;
66212;SDS011;53015;50.046;8.238;2023-04-27T06:01:50;7.20;;;3.40;;
66212;SDS011;53015;50.046;8.238;2023-04-27T06:04:15;6.18;;;3.47;;
66212;SDS011;53015;50.046;8.238;2023-04-27T06:06:41;7.18;;;3.42;;
66212;SDS011;53015;50.046;8.238;2023-04-27T06:09:06;11.32;;;3.70;;
66212;SDS011;53015;50.046;8.238;2023-04-27T06:11:32;10.25;;;3.83;;
66212;SDS011;53015;50.046;8.238;2023-04-27T06:13:58;6.65;;;3.60;;
66212;SDS011;53015;50.046;8.238;2023-04-27T06:16:24;7.10;;;3.25;;
66212;SDS011;53015;50.046;8.238;2023-04-27T06:18:49;6.90;;;3.55;;
66212;SDS011;53015;50.046;8.238;2023-04-27T06:21:16;10.57;;;3.78;;
66212;SDS011;53015;50.046;8.238;2023-04-27T06:23:41;8.38;;;3.38;;
66212;SDS011;53015;50.046;8.238;2023-04-27T06:26:07;8.30;;;4.20;;
66212;SDS011;53015;50.046;8.238;2023-04-27T06:28:32;5.88;;;3.20;;
66212;SDS011;53015;50.046;8.238;2023-04-27T06:30:59;8.75;;;4.07;;
66212;SDS011;53015;50.046;8.238;2023-04-27T06:33:25;6.20;;;3.10;;
66212;SDS011;53015;50.046;8.238;2023-04-27T06:35:50;6.85;;;3.50;;
66212;SDS011;53015;50.046;8.238;2023-04-27T06:38:16;14.02;;;4.00;;
66212;SDS011;53015;50.046;8.238;2023-04-27T06:40:42;8.75;;;3.50;;
66212;SDS011;53015;50.046;8.238;2023-04-27T06:43:07;12.05;;;3.88;;
66212;SDS011;53015;50.046;8.238;2023-04-27T06:45:32;6.95;;;3.20;;
66212;SDS011;53015;50.046;8.238;2023-04-27T06:47:59;12.15;;;3.50;;
66212;SDS011;53015;50.046;8.238;2023-04-27T06:50:25;11.00;;;3.72;;
66212;SDS011;53015;50.046;8.238;2023-04-27T06:52:50;7.28;;;3.50;;
66212;SDS011;53015;50.046;8.238;2023-04-27T06:55:16;9.50;;;3.97;;
66212;SDS011;53015;50.046;8.238;2023-04-27T06:57:41;12.35;;;3.35;;
66212;SDS011;53015;50.046;8.238;2023-04-27T07:00:07;7.13;;;2.90;;
66212;SDS011;53015;50.046;8.238;2023-04-27T07:02:33;7.88;;;3.17;;
66212;SDS011;53015;50.046;8.238;2023-04-27T07:05:00;8.82;;;3.47;;
66212;SDS011;53015;50.046;8.238;2023-04-27T07:07:25;5.45;;;2.97;;
66212;SDS011;53015;50.046;8.238;2023-04-27T07:09:51;9.65;;;3.30;;
66212;SDS011;53015;50.046;8.238;2023-04-27T07:12:16;7.00;;;2.83;;
66212;SDS011;53015;50.046;8.238;2023-04-27T07:14:42;6.25;;;2.90;;
66212;SDS011;53015;50.046;8.238;2023-04-27T07:17:07;10.57;;;2.63;;
66212;SDS011;53015;50.046;8.238;2023-04-27T07:19:33;7.65;;;2.63;;
66212;SDS011;53015;50.046;8.238;2023-04-27T07:22:00;8.52;;;2.47;;
66212;SDS011;53015;50.046;8.238;2023-04-27T07:24:25;5.75;;;2.25;;
66212;SDS011;53015;50.046;8.238;2023-04-27T07:26:50;10.30;;;2.30;;
66212;SDS011;53015;50.046;8.238;2023-04-27T07:29:16;4.53;;;1.70;;
66212;SDS011;53015;50.046;8.238;2023-04-27T07:31:41;9.15;;;1.90;;
66212;SDS011;53015;50.046;8.238;2023-04-27T07:34:07;4.75;;;2.08;;
66212;SDS011;53015;50.046;8.238;2023-04-27T07:36:32;4.95;;;1.58;;
66212;SDS011;53015;50.046;8.238;2023-04-27T07:38:59;4.13;;;1.52;;
66212;SDS011;53015;50.046;8.238;2023-04-27T07:41:24;6.25;;;2.20;;
66212;SDS011;53015;50.046;8.238;2023-04-27T07:43:50;5.97;;;1.70;;
66212;SDS011;53015;50.046;8.238;2023-04-27T07:46:15;5.07;;;1.50;;
66212;SDS011;53015;50.046;8.238;2023-04-27T07:48:41;4.22;;;1.60;;
66212;SDS011;53015;50.046;8.238;2023-04-27T07:51:06;4.38;;;1.35;;
66212;SDS011;53015;50.046;8.238;2023-04-27T07:53:33;3.83;;;1.52;;
66212;SDS011;53015;50.046;8.238;2023-04-27T07:56:00;4.65;;;1.90;;
66212;SDS011;53015;50.046;8.238;2023-04-27T07:58:26;7.43;;;1.92;;
66212;SDS011;53015;50.046;8.238;2023-04-27T08:00:51;12.80;;;2.20;;
66212;SDS011;53015;50.046;8.238;2023-04-27T08:03:17;4.13;;;1.77;;
66212;SDS011;53015;50.046;8.238;2023-04-27T08:05:42;7.05;;;1.90;;
66212;SDS011;53015;50.046;8.238;2023-04-27T08:08:07;8.35;;;2.05;;
66212;SDS011;53015;50.046;8.238;2023-04-27T08:10:33;7.10;;;2.08;;
66212;SDS011;53015;50.046;8.238;2023-04-27T08:13:00;7.05;;;1.92;;
66212;SDS011;53015;50.046;8.238;2023-04-27T08:15:25;4.88;;;1.60;;
66212;SDS011;53015;50.046;8.238;2023-04-27T08:17:51;8.65;;;1.95;;
66212;SDS011;53015;50.046;8.238;2023-04-27T08:20:16;6.68;;;1.70;;
66212;SDS011;53015;50.046;8.238;2023-04-27T08:22:42;7.20;;;1.63;;
66212;SDS011;53015;50.046;8.238;2023-04-27T08:25:08;5.20;;;1.95;;
66212;SDS011;53015;50.046;8.238;2023-04-27T08:27:35;4.43;;;1.33;;
66212;SDS011;53015;50.046;8.238;2023-04-27T08:30:02;5.40;;;1.60;;
66212;SDS011;53015;50.046;8.238;2023-04-27T08:32:28;5.93;;;1.60;;
66212;SDS011;53015;50.046;8.238;2023-04-27T08:34:54;5.10;;;1.48;;
66212;SDS011;53015;50.046;8.238;2023-04-27T08:37:19;6.40;;;1.58;;
66212;SDS011;53015;50.046;8.238;2023-04-27T08:39:45;3.95;;;1.42;;
66212;SDS011;53015;50.046;8.238;2023-04-27T08:42:12;9.52;;;1.77;;
66212;SDS011;53015;50.046;8.238;2023-04-27T08:44:38;7.07;;;1.63;;
66212;SDS011;53015;50.046;8.238;2023-04-27T08:47:05;8.10;;;1.80;;
66212;SDS011;53015;50.046;8.238;2023-04-27T08:49:31;6.38;;;2.00;;
66212;SDS011;53015;50.046;8.238;2023-04-27T08:51:56;9.25;;;1.88;;
66212;SDS011;53015;50.046;8.238;2023-04-27T08:54:22;5.07;;;1.30;;
66212;SDS011;53015;50.046;8.238;2023-04-27T08:56:47;4.68;;;1.50;;
66212;SDS011;53015;50.046;8.238;2023-04-27T08:59:13;7.63;;;1.65;;
66212;SDS011;53015;50.046;8.238;2023-04-27T09:01:42;4.78;;;1.58;;
66212;SDS011;53015;50.046;8.238;2023-04-27T09:04:09;4.32;;;1.38;;
66212;SDS011;53015;50.046;8.238;2023-04-27T09:06:34;7.28;;;1.70;;
66212;SDS011;53015;50.046;8.238;2023-04-27T09:09:00;3.95;;;1.42;;
66212;SDS011;53015;50.046;8.238;2023-04-27T09:11:27;8.13;;;1.45;;
66212;SDS011;53015;50.046;8.238;2023-04-27T09:13:54;4.95;;;1.48;;
66212;SDS011;53015;50.046;8.238;2023-04-27T09:16:22;6.75;;;1.42;;
66212;SDS011;53015;50.046;8.238;2023-04-27T09:18:48;4.93;;;1.63;;
66212;SDS011;53015;50.046;8.238;2023-04-27T09:21:21;5.75;;;1.48;;
66212;SDS011;53015;50.046;8.238;2023-04-27T09:23:48;4.95;;;1.50;;
66212;SDS011;53015;50.046;8.238;2023-04-27T09:26:18;5.35;;;1.55;;
66212;SDS011;53015;50.046;8.238;2023-04-27T09:28:46;4.80;;;1.60;;
66212;SDS011;53015;50.046;8.238;2023-04-27T09:31:13;6.28;;;2.55;;
66212;SDS011;53015;50.046;8.238;2023-04-27T09:33:38;17.98;;;1.83;;
66212;SDS011;53015;50.046;8.238;2023-04-27T09:36:04;5.78;;;1.50;;
66212;SDS011;53015;50.046;8.238;2023-04-27T09:38:31;4.65;;;1.95;;
66212;SDS011;53015;50.046;8.238;2023-04-27T09:40:57;5.60;;;1.67;;
66212;SDS011;53015;50.046;8.238;2023-04-27T09:43:24;5.18;;;1.60;;
66212;SDS011;53015;50.046;8.238;2023-04-27T09:45:50;4.22;;;1.70;;
66212;SDS011;53015;50.046;8.238;2023-04-27T09:48:15;12.27;;;2.00;;
66212;SDS011;53015;50.046;8.238;2023-04-27T09:50:42;4.25;;;1.52;;
66212;SDS011;53015;50.046;8.238;2023-04-27T09:53:09;4.60;;;1.60;;
66212;SDS011;53015;50.046;8.238;2023-04-27T09:55:38;4.85;;;1.90;;
66212;SDS011;53015;50.046;8.238;2023-04-27T09:58:08;6.78;;;1.60;;
66212;SDS011;53015;50.046;8.238;2023-04-27T10:00:58;3.28;;;1.55;;
66212;SDS011;53015;50.046;8.238;2023-04-27T10:03:32;5.22;;;1.88;;
66212;SDS011;53015;50.046;8.238;2023-04-27T10:06:20;7.72;;;2.40;;
66212;SDS011;53015;50.046;8.238;2023-04-27T10:09:07;6.38;;;1.70;;
66212;SDS011;53015;50.046;8.238;2023-04-27T10:11:38;8.73;;;2.17;;
66212;SDS011;53015;50.046;8.238;2023-04-27T10:14:04;4.63;;;2.00;;
66212;SDS011;53015;50.046;8.238;2023-04-27T10:16:38;6.70;;;2.17;;
66212;SDS011;53015;50.046;8.238;2023-04-27T10:19:08;5.53;;;2.10;;
66212;SDS011;53015;50.046;8.238;2023-04-27T10:21:34;8.27;;;1.92;;
66212;SDS011;53015;50.046;8.238;2023-04-27T10:24:05;5.55;;;2.15;;
66212;SDS011;53015;50.046;8.238;2023-04-27T10:26:31;8.20;;;2.03;;
66212;SDS011;53015;50.046;8.238;2023-04-27T10:29:03;7.72;;;2.22;;
66212;SDS011;53015;50.046;8.238;2023-04-27T10:31:29;7.38;;;1.98;;
66212;SDS011;53015;50.046;8.238;2023-04-27T10:34:05;5.50;;;1.60;;
66212;SDS011;53015;50.046;8.238;2023-04-27T10:36:35;6.55;;;2.25;;
66212;SDS011;53015;50.046;8.238;2023-04-27T10:39:01;7.07;;;1.98;;
66212;SDS011;53015;50.046;8.238;2023-04-27T10:41:32;7.93;;;2.00;;
66212;SDS011;53015;50.046;8.238;2023-04-27T10:44:13;6.78;;;1.98;;
66212;SDS011;53015;50.046;8.238;2023-04-27T10:46:48;5.28;;;2.10;;
66212;SDS011;53015;50.046;8.238;2023-04-27T10:49:14;9.00;;;2.35;;
66212;SDS011;53015;50.046;8.238;2023-04-27T10:51:40;6.38;;;2.25;;
66212;SDS011;53015;50.046;8.238;2023-04-27T10:54:05;5.63;;;2.72;;
66212;SDS011;53015;50.046;8.238;2023-04-27T10:56:32;6.13;;;2.50;;
66212;SDS011;53015;50.046;8.238;2023-04-27T10:59:00;7.38;;;2.92;;
66212;SDS011;53015;50.046;8.238;2023-04-27T11:01:27;6.85;;;2.60;;
66212;SDS011;53015;50.046;8.238;2023-04-27T11:03:53;8.43;;;2.50;;
66212;SDS011;53015;50.046;8.238;2023-04-27T11:06:19;5.13;;;2.28;;
66212;SDS011;53015;50.046;8.238;2023-04-27T11:08:44;5.05;;;2.60;;
66212;SDS011;53015;50.046;8.238;2023-04-27T11:11:12;8.95;;;2.67;;
66212;SDS011;53015;50.046;8.238;2023-04-27T11:13:38;5.57;;;2.70;;
66212;SDS011;53015;50.046;8.238;2023-04-27T11:16:04;4.10;;;2.20;;
66212;SDS011;53015;50.046;8.238;2023-04-27T11:18:31;8.70;;;2.80;;
66212;SDS011;53015;50.046;8.238;2023-04-27T11:21:04;6.43;;;2.60;;
66212;SDS011;53015;50.046;8.238;2023-04-27T11:23:31;6.55;;;2.40;;
66212;SDS011;53015;50.046;8.238;2023-04-27T11:25:56;5.72;;;2.95;;
66212;SDS011;53015;50.046;8.238;2023-04-27T11:28:22;6.30;;;2.90;;
66212;SDS011;53015;50.046;8.238;2023-04-27T11:30:54;7.80;;;2.80;;
66212;SDS011;53015;50.046;8.238;2023-04-27T11:33:20;6.22;;;2.83;;
66212;SDS011;53015;50.046;8.238;2023-04-27T11:35:47;6.25;;;2.55;;
66212;SDS011;53015;50.046;8.238;2023-04-27T11:38:15;5.53;;;2.08;;
66212;SDS011;53015;50.046;8.238;2023-04-27T11:40:41;8.65;;;2.85;;
66212;SDS011;53015;50.046;8.238;2023-04-27T11:43:10;8.23;;;2.70;;
66212;SDS011;53015;50.046;8.238;2023-04-27T11:45:36;6.53;;;2.90;;
66212;SDS011;53015;50.046;8.238;2023-04-27T11:48:06;5.68;;;2.53;;
66212;SDS011;53015;50.046;8.238;2023-04-27T11:50:36;7.70;;;2.90;;
66212;SDS011;53015;50.046;8.238;2023-04-27T11:53:04;6.32;;;2.38;;
66212;SDS011;53015;50.046;8.238;2023-04-27T11:55:33;13.73;;;2.40;;
66212;SDS011;53015;50.046;8.238;2023-04-27T11:57:59;5.88;;;2.17;;
66212;SDS011;53015;50.046;8.238;2023-04-27T12:00:25;6.88;;;2.38;;
66212;SDS011;53015;50.046;8.238;2023-04-27T12:02:50;6.00;;;2.33;;
66212;SDS011;53015;50.046;8.238;2023-04-27T12:05:16;4.75;;;1.95;;
66212;SDS011;53015;50.046;8.238;2023-04-27T12:07:41;4.88;;;2.20;;
66212;SDS011;53015;50.046;8.238;2023-04-27T12:10:08;6.30;;;2.17;;
66212;SDS011;53015;50.046;8.238;2023-04-27T12:12:34;5.28;;;2.28;;
66212;SDS011;53015;50.046;8.238;2023-04-27T12:15:00;5.93;;;2.22;;
66212;SDS011;53015;50.046;8.238;2023-04-27T12:17:25;5.38;;;1.85;;
66212;SDS011;53015;50.046;8.238;2023-04-27T12:19:51;6.90;;;2.20;;
66212;SDS011;53015;50.046;8.238;2023-04-27T12:22:16;3.72;;;1.88;;
66212;SDS011;53015;50.046;8.238;2023-04-27T12:24:42;8.75;;;2.42;;
66212;SDS011;53015;50.046;8.238;2023-04-27T12:27:08;5.00;;;1.95;;
66212;SDS011;53015;50.046;8.238;2023-04-27T12:29:34;8.98;;;2.10;;
66212;SDS011;53015;50.046;8.238;2023-04-27T12:31:59;6.32;;;2.53;;
66212;SDS011;53015;50.046;8.238;2023-04-27T12:34:25;8.05;;;2.88;;
66212;SDS011;53015;50.046;8.238;2023-04-27T12:36:51;9.52;;;2.90;;
66212;SDS011;53015;50.046;8.238;2023-04-27T12:39:17;8.35;;;2.60;;
66212;SDS011;53015;50.046;8.238;2023-04-27T12:41:44;5.28;;;1.83;;
66212;SDS011;53015;50.046;8.238;2023-04-27T12:44:11;9.15;;;2.45;;
66212;SDS011;53015;50.046;8.238;2023-04-27T12:46:37;6.60;;;2.30;;
66212;SDS011;53015;50.046;8.238;2023-04-27T12:49:03;5.93;;;1.80;;
66212;SDS011;53015;50.046;8.238;2023-04-27T12:51:28;5.57;;;2.50;;
66212;SDS011;53015;50.046;8.238;2023-04-27T12:53:54;4.65;;;2.10;;
66212;SDS011;53015;50.046;8.238;2023-04-27T12:56:19;5.93;;;2.20;;
66212;SDS011;53015;50.046;8.238;2023-04-27T12:58:44;9.50;;;2.53;;
66212;SDS011;53015;50.046;8.238;2023-04-27T13:01:11;4.82;;;2.00;;
66212;SDS011;53015;50.046;8.238;2023-04-27T13:03:37;7.38;;;2.03;;
66212;SDS011;53015;50.046;8.238;2023-04-27T13:06:02;7.35;;;2.10;;
66212;SDS011;53015;50.046;8.238;2023-04-27T13:08:28;5.70;;;1.98;;
66212;SDS011;53015;50.046;8.238;2023-04-27T13:10:53;6.90;;;2.30;;
66212;SDS011;53015;50.046;8.238;2023-04-27T13:13:19;6.28;;;2.55;;
66212;SDS011;53015;50.046;8.238;2023-04-27T13:15:44;4.90;;;2.05;;
66212;SDS011;53015;50.046;8.238;2023-04-27T13:18:11;9.00;;;2.50;;
66212;SDS011;53015;50.046;8.238;2023-04-27T13:20:37;5.38;;;2.25;;
66212;SDS011;53015;50.046;8.238;2023-04-27T13:23:03;6.38;;;1.80;;
66212;SDS011;53015;50.046;8.238;2023-04-27T13:25:28;6.57;;;2.10;;
66212;SDS011;53015;50.046;8.238;2023-04-27T13:27:54;7.18;;;2.00;;
66212;SDS011;53015;50.046;8.238;2023-04-27T13:30:19;6.22;;;2.20;;
66212;SDS011;53015;50.046;8.238;2023-04-27T13:32:45;5.40;;;2.22;;
66212;SDS011;53015;50.046;8.238;2023-04-27T13:35:12;6.28;;;2.30;;
66212;SDS011;53015;50.046;8.238;2023-04-27T13:37:37;5.80;;;2.55;;
66212;SDS011;53015;50.046;8.238;2023-04-27T13:40:04;4.18;;;1.95;;
66212;SDS011;53015;50.046;8.238;2023-04-27T13:42:31;5.75;;;1.90;;
66212;SDS011;53015;50.046;8.238;2023-04-27T13:44:56;6.05;;;2.20;;
66212;SDS011;53015;50.046;8.238;2023-04-27T13:47:22;5.85;;;1.92;;
66212;SDS011;53015;50.046;8.238;2023-04-27T13:49:47;3.50;;;1.83;;
66212;SDS011;53015;50.046;8.238;2023-04-27T13:52:14;5.40;;;2.50;;
66212;SDS011;53015;50.046;8.238;2023-04-27T13:54:40;4.32;;;2.20;;
66212;SDS011;53015;50.046;8.238;2023-04-27T13:57:06;5.95;;;2.20;;
66212;SDS011;53015;50.046;8.238;2023-04-27T13:59:31;4.95;;;2.22;;
66212;SDS011;53015;50.046;8.238;2023-04-27T14:01:57;4.93;;;2.35;;
66212;SDS011;53015;50.046;8.238;2023-04-27T14:04:22;3.33;;;1.85;;
66212;SDS011;53015;50.046;8.238;2023-04-27T14:06:48;6.82;;;2.20;;
66212;SDS011;53015;50.046;8.238;2023-04-27T14:09:15;7.00;;;1.70;;
66212;SDS011;53015;50.046;8.238;2023-04-27T14:11:40;7.60;;;2.38;;
66212;SDS011;53015;50.046;8.238;2023-04-27T14:14:06;5.10;;;1.90;;
66212;SDS011;53015;50.046;8.238;2023-04-27T14:16:31;6.35;;;2.00;;
66212;SDS011;53015;50.046;8.238;2023-04-27T14:18:57;4.88;;;2.30;;
66212;SDS011;53015;50.046;8.238;2023-04-27T14:21:23;5.90;;;2.13;;
66212;SDS011;53015;50.046;8.238;2023-04-27T14:23:48;7.57;;;2.45;;
66212;SDS011;53015;50.046;8.238;2023-04-27T14:26:15;5.85;;;1.90;;
66212;SDS011;53015;50.046;8.238;2023-04-27T14:28:41;4.03;;;2.10;;
66212;SDS011;53015;50.046;8.238;2023-04-27T14:31:06;4.20;;;1.65;;
66212;SDS011;53015;50.046;8.238;2023-04-27T14:33:32;6.47;;;1.60;;
66212;SDS011;53015;50.046;8.238;2023-04-27T14:35:57;3.70;;;2.00;;
66212;SDS011;53015;50.046;8.238;2023-04-27T14:38:23;5.20;;;1.88;;
66212;SDS011;53015;50.046;8.238;2023-04-27T14:40:48;4.75;;;1.60;;
66212;SDS011;53015;50.046;8.238;2023-04-27T14:43:15;7.05;;;1.80;;